METAR stanice u blizini

 

LYBE - Beograd / Surčin, Srbija
Ažurirano: 25/04/2019 19:30
Vedro
Vedro
 Pravac vetra I
Vetar: I 6 km/h
Temperatura: 24°C
Tačka rose: 11°C
Vlažnost: 44%
Pritisak: 1017 hPa
Pregled: Vedro
Vidljivost: greater than 10 km
2019/04/25 17:30 LYBE 251730Z 09003KT CAVOK 24/11 Q1017 NOSIG
LYBT - Beograd / Batajnica, Srbija
Ažurirano: 25/04/2019 19:30
Vedro
Vedro
 Pravac vetra varies
Vetar: varies 4 km/h
Temperatura: 21°C
Tačka rose: 11°C
Vlažnost: 53%
Pritisak: 1017 hPa
Pregled: Vedro
Vidljivost: greater than 10 km
2019/04/25 17:30 LYBT 251730Z VRB02KT CAVOK 21/11 Q1017 NOSIG
LYVR - Vršac, Srbija
Ažurirano: 25/04/2019 19:30
Vedro
Vedro
 Pravac vetra JI
Vetar: JI 26 km/h
Temperatura: 23°C
Tačka rose: 8°C
Vlažnost: 38%
Pritisak: 1018 hPa
Pregled: Vedro
Vidljivost: greater than 10 km
2019/04/25 17:30 LYVR 251730Z 13014KT CAVOK 23/08 Q1018 NOSIG
 
LYKV - Lađevci, Srbija
Ažurirano: 25/04/2019 19:30
Partly Cloudy
Partly Cloudy
 Pravac vetra IJI
Vetar: IJI 7 km/h
Temperatura: 20°C
Tačka rose: 15°C
Vlažnost: 73%
Pritisak: 1017 hPa
Oblaci: Partly Cloudy
Vidljivost: 10 km
Cloud details: Few Clouds 1067 m
Partly Cloudy 1524 m
2019/04/25 17:30 LYKV 251730Z 12004KT 9999 FEW035TCU SCT050 20/15 Q1017 NOSIG
LYNI - Niš, Srbija
Ažurirano: 25/04/2019 19:30
Vedro
Vedro
 Pravac vetra I
Vetar: I 6 km/h
Temperatura: 22°C
Tačka rose: 10°C
Vlažnost: 47%
Pritisak: 1018 hPa
Pregled: Vedro
Vidljivost: greater than 10 km
2019/04/25 17:30 LYNI 251730Z 09003KT 040V140 CAVOK 22/10 Q1018 NOSIG
BKPR - Priština, Srbija
Ažurirano: 25/04/2019 20:00
Partly Cloudy
Partly Cloudy
 Pravac vetra varies
Vetar: varies 4 km/h
Temperatura: 20°C
Tačka rose: 5°C
Vlažnost: 38%
Pritisak: 1020 hPa
Oblaci: Partly Cloudy
Vidljivost: 10 km
Cloud details: Few Clouds 1219 m
Partly Cloudy 1829 m
2019/04/25 18:00 BKPR 251800Z VRB02KT 9999 FEW040 SCT060 20/05 Q1020 NOSIG
 
LHPP - Pecs / Pogany, Hungary
Ažurirano: 25/04/2019 18:45
Vedro
Vedro
 Pravac vetra J
Vetar: J 6 km/h
Temperatura: 23°C
Tačka rose: 12°C
Vlažnost: 50%
Pritisak: 1017 hPa
Pregled: Vedro
Vidljivost: greater than 10 km
2019/04/25 16:45 LHPP 251645Z 18003KT CAVOK 23/12 Q1017
LHUD - Szeged, Hungary
Ažurirano: 25/04/2019 13:45
NOT Current
Vedro
Vedro
 Pravac vetra JJZ
Vetar: JJZ 17 km/h
Temperatura: 26°C
Tačka rose: 8°C
Vlažnost: 32%
Pritisak: 1019 hPa
Pregled: Vedro
Vidljivost: greater than 10 km
2019/04/25 11:45 LHUD 251145Z 20009KT CAVOK 26/08 Q1019
LRTR - Timisoara, Romania
Ažurirano: 25/04/2019 19:30
Vedro
Vedro
 Pravac vetra JI
Vetar: JI 7 km/h
Temperatura: 21°C
Tačka rose: 11°C
Vlažnost: 53%
Pritisak: 1017 hPa
Pregled: Vedro
Vidljivost: greater than 10 km
2019/04/25 17:30 LRTR 251730Z 13004KT CAVOK 21/11 Q1017 NOSIG
 
LRCV - Craiova, Romania
Ažurirano: 25/04/2019 19:30
Vedro
Vedro
 Pravac vetra JI
Vetar: JI 7 km/h
Temperatura: 18°C
Tačka rose: 10°C
Vlažnost: 60%
Pritisak: 1020 hPa
Oblaci: Vedro
Vidljivost: 10 km
2019/04/25 17:30 LRCV 251730Z AUTO 13004KT 9999 NCD 18/10 Q1020
LBSF - Sofia, Bulgaria
Ažurirano: 25/04/2019 19:30
Partly Cloudy
Partly Cloudy
 Pravac vetra I
Vetar: I 20 km/h
Temperatura: 17°C
Tačka rose: 10°C
Vlažnost: 64%
Pritisak: 1021 hPa
Oblaci: Partly Cloudy
Vidljivost: 10 km
Cloud details: Few Clouds 1219 m
Partly Cloudy 1890 m
2019/04/25 17:30 LBSF 251730Z 09011KT 9999 FEW040TCU SCT062 17/10 Q1021 NOSIG
LWSK - Skoplje, Makedonija
Ažurirano: 25/04/2019 19:30
Vedro
Vedro
 Pravac vetra JI
Vetar: JI 9 km/h
Temperatura: 20°C
Tačka rose: 12°C
Vlažnost: 60%
Pritisak: 1020 hPa
Pregled: Vedro
Vidljivost: greater than 10 km
2019/04/25 17:30 LWSK 251730Z 13005KT CAVOK 20/12 Q1020 NOSIG
 
LYPG - Podgorica, Crna Gora
Ažurirano: 25/04/2019 19:30
Vedro
Vedro
 Pravac vetra JZ
Vetar: JZ 13 km/h
Temperatura: 23°C
Tačka rose: 9°C
Vlažnost: 41%
Pritisak: 1020 hPa
Pregled: Vedro
Vidljivost: greater than 10 km
2019/04/25 17:30 LYPG 251730Z 23007KT CAVOK 23/09 Q1020 NOSIG
LQSA - Sarajevo, Bosna i Hercegovina
Ažurirano: 25/04/2019 19:30
Vedro
Vedro
 Pravac vetra varies
Vetar: varies 4 km/h
Temperatura: 21°C
Tačka rose: 5°C
Vlažnost: 35%
Pritisak: 1019 hPa
Pregled: Vedro
Vidljivost: greater than 10 km
2019/04/25 17:30 LQSA 251730Z VRB02KT CAVOK 21/05 Q1019
LDOS - Osijek, Hrvatksa
Ažurirano: 25/04/2019 19:30
Vedro
Vedro
 Pravac vetra JJI
Vetar: JJI 9 km/h
Temperatura: 23°C
Tačka rose: 10°C
Vlažnost: 44%
Pritisak: 1016 hPa
Pregled: Vedro
Vidljivost: greater than 10 km
2019/04/25 17:30 LDOS 251730Z 16005KT CAVOK 23/10 Q1016